sensor_id;sensor_type;location;lat;lon;timestamp;P1;durP1;ratioP1;P2;durP2;ratioP2
58581;SDS011;44361;51.476;5.700;2024-01-15T00:00:10;61.70;;;22.42;;
58581;SDS011;44361;51.476;5.700;2024-01-15T00:02:36;63.92;;;22.52;;
58581;SDS011;44361;51.476;5.700;2024-01-15T00:05:01;60.05;;;21.95;;
58581;SDS011;44361;51.476;5.700;2024-01-15T00:07:27;64.80;;;23.73;;
58581;SDS011;44361;51.476;5.700;2024-01-15T00:09:52;62.92;;;23.55;;
58581;SDS011;44361;51.476;5.700;2024-01-15T00:12:18;61.13;;;22.35;;
58581;SDS011;44361;51.476;5.700;2024-01-15T00:14:44;58.95;;;22.48;;
58581;SDS011;44361;51.476;5.700;2024-01-15T00:17:09;57.88;;;21.88;;
58581;SDS011;44361;51.476;5.700;2024-01-15T00:19:35;67.20;;;22.58;;
58581;SDS011;44361;51.476;5.700;2024-01-15T00:22:00;63.40;;;22.85;;
58581;SDS011;44361;51.476;5.700;2024-01-15T00:24:26;64.45;;;22.30;;
58581;SDS011;44361;51.476;5.700;2024-01-15T00:26:51;60.03;;;23.15;;
58581;SDS011;44361;51.476;5.700;2024-01-15T00:29:18;60.85;;;21.40;;
58581;SDS011;44361;51.476;5.700;2024-01-15T00:31:44;61.65;;;22.67;;
58581;SDS011;44361;51.476;5.700;2024-01-15T00:34:09;52.70;;;21.65;;
58581;SDS011;44361;51.476;5.700;2024-01-15T00:36:35;63.28;;;20.65;;
58581;SDS011;44361;51.476;5.700;2024-01-15T00:39:01;52.47;;;19.60;;
58581;SDS011;44361;51.476;5.700;2024-01-15T00:41:26;60.67;;;21.27;;
58581;SDS011;44361;51.476;5.700;2024-01-15T00:43:53;55.92;;;20.77;;
58581;SDS011;44361;51.476;5.700;2024-01-15T00:46:18;59.47;;;21.33;;
58581;SDS011;44361;51.476;5.700;2024-01-15T00:48:44;57.28;;;20.45;;
58581;SDS011;44361;51.476;5.700;2024-01-15T00:51:10;52.17;;;21.27;;
58581;SDS011;44361;51.476;5.700;2024-01-15T00:53:35;47.20;;;18.67;;
58581;SDS011;44361;51.476;5.700;2024-01-15T00:56:01;52.20;;;19.27;;
58581;SDS011;44361;51.476;5.700;2024-01-15T00:58:28;47.72;;;18.92;;
58581;SDS011;44361;51.476;5.700;2024-01-15T01:00:53;47.80;;;17.38;;
58581;SDS011;44361;51.476;5.700;2024-01-15T01:03:19;46.10;;;17.92;;
58581;SDS011;44361;51.476;5.700;2024-01-15T01:05:44;45.28;;;17.58;;
58581;SDS011;44361;51.476;5.700;2024-01-15T01:08:10;48.78;;;17.23;;
58581;SDS011;44361;51.476;5.700;2024-01-15T01:10:36;39.00;;;14.27;;
58581;SDS011;44361;51.476;5.700;2024-01-15T01:13:02;39.53;;;14.80;;
58581;SDS011;44361;51.476;5.700;2024-01-15T01:15:28;39.08;;;12.85;;
58581;SDS011;44361;51.476;5.700;2024-01-15T01:17:53;30.25;;;12.93;;
58581;SDS011;44361;51.476;5.700;2024-01-15T01:20:19;25.52;;;11.48;;
58581;SDS011;44361;51.476;5.700;2024-01-15T01:22:44;32.72;;;9.82;;
58581;SDS011;44361;51.476;5.700;2024-01-15T01:25:10;34.97;;;10.00;;
58581;SDS011;44361;51.476;5.700;2024-01-15T01:27:35;26.33;;;8.85;;
58581;SDS011;44361;51.476;5.700;2024-01-15T01:30:01;23.60;;;8.55;;
58581;SDS011;44361;51.476;5.700;2024-01-15T01:32:27;21.98;;;7.20;;
58581;SDS011;44361;51.476;5.700;2024-01-15T01:34:53;18.17;;;6.82;;
58581;SDS011;44361;51.476;5.700;2024-01-15T01:37:19;22.45;;;6.20;;
58581;SDS011;44361;51.476;5.700;2024-01-15T01:39:45;15.05;;;5.40;;
58581;SDS011;44361;51.476;5.700;2024-01-15T01:42:10;15.07;;;4.45;;
58581;SDS011;44361;51.476;5.700;2024-01-15T01:44:36;16.48;;;3.88;;
58581;SDS011;44361;51.476;5.700;2024-01-15T01:47:02;8.52;;;3.85;;
58581;SDS011;44361;51.476;5.700;2024-01-15T01:49:29;11.60;;;3.95;;
58581;SDS011;44361;51.476;5.700;2024-01-15T01:51:56;7.80;;;3.25;;
58581;SDS011;44361;51.476;5.700;2024-01-15T01:54:23;10.65;;;3.28;;
58581;SDS011;44361;51.476;5.700;2024-01-15T01:56:50;8.63;;;3.47;;
58581;SDS011;44361;51.476;5.700;2024-01-15T01:59:16;9.23;;;3.13;;
58581;SDS011;44361;51.476;5.700;2024-01-15T02:01:42;4.90;;;2.50;;
58581;SDS011;44361;51.476;5.700;2024-01-15T02:04:09;8.43;;;2.88;;
58581;SDS011;44361;51.476;5.700;2024-01-15T02:06:35;10.05;;;3.80;;
58581;SDS011;44361;51.476;5.700;2024-01-15T02:09:01;8.02;;;3.33;;
58581;SDS011;44361;51.476;5.700;2024-01-15T02:11:26;10.20;;;3.75;;
58581;SDS011;44361;51.476;5.700;2024-01-15T02:13:52;11.15;;;3.88;;
58581;SDS011;44361;51.476;5.700;2024-01-15T02:16:18;10.95;;;3.92;;
58581;SDS011;44361;51.476;5.700;2024-01-15T02:18:44;12.65;;;4.32;;
58581;SDS011;44361;51.476;5.700;2024-01-15T02:21:10;15.05;;;4.55;;
58581;SDS011;44361;51.476;5.700;2024-01-15T02:23:37;10.77;;;5.15;;
58581;SDS011;44361;51.476;5.700;2024-01-15T02:26:03;11.23;;;4.25;;
58581;SDS011;44361;51.476;5.700;2024-01-15T02:28:29;18.45;;;5.75;;
58581;SDS011;44361;51.476;5.700;2024-01-15T02:30:55;13.50;;;5.35;;
58581;SDS011;44361;51.476;5.700;2024-01-15T02:33:21;15.68;;;5.90;;
58581;SDS011;44361;51.476;5.700;2024-01-15T02:35:46;16.00;;;6.47;;
58581;SDS011;44361;51.476;5.700;2024-01-15T02:38:15;10.68;;;5.03;;
58581;SDS011;44361;51.476;5.700;2024-01-15T02:40:41;14.18;;;5.50;;
58581;SDS011;44361;51.476;5.700;2024-01-15T02:43:08;13.20;;;5.38;;
58581;SDS011;44361;51.476;5.700;2024-01-15T02:45:33;12.93;;;4.68;;
58581;SDS011;44361;51.476;5.700;2024-01-15T02:47:59;10.70;;;5.22;;
58581;SDS011;44361;51.476;5.700;2024-01-15T02:50:24;14.02;;;5.28;;
58581;SDS011;44361;51.476;5.700;2024-01-15T02:52:50;21.38;;;5.28;;
58581;SDS011;44361;51.476;5.700;2024-01-15T02:55:15;15.43;;;5.88;;
58581;SDS011;44361;51.476;5.700;2024-01-15T02:57:41;17.80;;;5.95;;
58581;SDS011;44361;51.476;5.700;2024-01-15T03:00:07;24.00;;;6.47;;
58581;SDS011;44361;51.476;5.700;2024-01-15T03:02:33;14.75;;;5.82;;
58581;SDS011;44361;51.476;5.700;2024-01-15T03:05:02;21.50;;;6.15;;
58581;SDS011;44361;51.476;5.700;2024-01-15T03:07:28;14.45;;;5.80;;
58581;SDS011;44361;51.476;5.700;2024-01-15T03:09:53;18.65;;;5.97;;
58581;SDS011;44361;51.476;5.700;2024-01-15T03:12:19;13.50;;;5.32;;
58581;SDS011;44361;51.476;5.700;2024-01-15T03:14:44;22.08;;;4.65;;
58581;SDS011;44361;51.476;5.700;2024-01-15T03:17:10;14.73;;;5.00;;
58581;SDS011;44361;51.476;5.700;2024-01-15T03:19:37;12.73;;;4.43;;
58581;SDS011;44361;51.476;5.700;2024-01-15T03:22:02;16.83;;;4.57;;
58581;SDS011;44361;51.476;5.700;2024-01-15T03:24:28;12.43;;;4.70;;
58581;SDS011;44361;51.476;5.700;2024-01-15T03:26:54;14.10;;;3.78;;
58581;SDS011;44361;51.476;5.700;2024-01-15T03:29:20;14.20;;;4.05;;
58581;SDS011;44361;51.476;5.700;2024-01-15T03:31:46;8.50;;;3.53;;
58581;SDS011;44361;51.476;5.700;2024-01-15T03:34:11;12.52;;;3.70;;
58581;SDS011;44361;51.476;5.700;2024-01-15T03:36:37;19.42;;;3.97;;
58581;SDS011;44361;51.476;5.700;2024-01-15T03:39:02;12.88;;;3.72;;
58581;SDS011;44361;51.476;5.700;2024-01-15T03:41:28;9.73;;;3.45;;
58581;SDS011;44361;51.476;5.700;2024-01-15T03:43:53;8.90;;;3.10;;
58581;SDS011;44361;51.476;5.700;2024-01-15T03:46:19;18.90;;;3.60;;
58581;SDS011;44361;51.476;5.700;2024-01-15T03:48:44;16.15;;;4.00;;
58581;SDS011;44361;51.476;5.700;2024-01-15T03:51:10;8.65;;;3.45;;
58581;SDS011;44361;51.476;5.700;2024-01-15T03:53:35;16.52;;;3.80;;
58581;SDS011;44361;51.476;5.700;2024-01-15T03:56:02;10.25;;;3.67;;
58581;SDS011;44361;51.476;5.700;2024-01-15T03:58:28;14.73;;;4.20;;
58581;SDS011;44361;51.476;5.700;2024-01-15T04:00:54;16.55;;;4.85;;
58581;SDS011;44361;51.476;5.700;2024-01-15T04:03:19;16.08;;;4.50;;
58581;SDS011;44361;51.476;5.700;2024-01-15T04:05:45;19.15;;;4.32;;
58581;SDS011;44361;51.476;5.700;2024-01-15T04:08:10;24.83;;;5.65;;
58581;SDS011;44361;51.476;5.700;2024-01-15T04:10:36;10.30;;;4.47;;
58581;SDS011;44361;51.476;5.700;2024-01-15T04:13:01;14.55;;;4.45;;
58581;SDS011;44361;51.476;5.700;2024-01-15T04:15:28;17.30;;;5.10;;
58581;SDS011;44361;51.476;5.700;2024-01-15T04:17:54;12.93;;;4.70;;
58581;SDS011;44361;51.476;5.700;2024-01-15T04:20:19;13.85;;;5.30;;
58581;SDS011;44361;51.476;5.700;2024-01-15T04:22:45;18.30;;;4.82;;
58581;SDS011;44361;51.476;5.700;2024-01-15T04:25:10;9.25;;;4.30;;
58581;SDS011;44361;51.476;5.700;2024-01-15T04:27:36;14.02;;;4.05;;
58581;SDS011;44361;51.476;5.700;2024-01-15T04:30:02;13.57;;;3.42;;
58581;SDS011;44361;51.476;5.700;2024-01-15T04:32:27;19.92;;;3.55;;
58581;SDS011;44361;51.476;5.700;2024-01-15T04:34:53;9.20;;;3.08;;
58581;SDS011;44361;51.476;5.700;2024-01-15T04:37:18;10.45;;;2.53;;
58581;SDS011;44361;51.476;5.700;2024-01-15T04:39:44;11.30;;;2.75;;
58581;SDS011;44361;51.476;5.700;2024-01-15T04:42:10;19.02;;;2.40;;
58581;SDS011;44361;51.476;5.700;2024-01-15T04:44:36;15.88;;;2.83;;
58581;SDS011;44361;51.476;5.700;2024-01-15T04:47:02;9.82;;;2.33;;
58581;SDS011;44361;51.476;5.700;2024-01-15T04:49:27;14.32;;;2.85;;
58581;SDS011;44361;51.476;5.700;2024-01-15T04:51:54;14.20;;;2.20;;
58581;SDS011;44361;51.476;5.700;2024-01-15T04:54:20;12.02;;;1.85;;
58581;SDS011;44361;51.476;5.700;2024-01-15T04:56:45;11.45;;;2.08;;
58581;SDS011;44361;51.476;5.700;2024-01-15T04:59:11;16.90;;;2.20;;
58581;SDS011;44361;51.476;5.700;2024-01-15T05:01:37;5.50;;;1.45;;
58581;SDS011;44361;51.476;5.700;2024-01-15T05:04:03;8.88;;;1.73;;
58581;SDS011;44361;51.476;5.700;2024-01-15T05:06:28;7.18;;;1.42;;
58581;SDS011;44361;51.476;5.700;2024-01-15T05:08:54;10.05;;;1.38;;
58581;SDS011;44361;51.476;5.700;2024-01-15T05:11:20;7.38;;;1.48;;
58581;SDS011;44361;51.476;5.700;2024-01-15T05:13:45;15.40;;;1.80;;
58581;SDS011;44361;51.476;5.700;2024-01-15T05:16:11;14.52;;;1.63;;
58581;SDS011;44361;51.476;5.700;2024-01-15T05:18:36;7.60;;;1.30;;
58581;SDS011;44361;51.476;5.700;2024-01-15T05:21:02;7.78;;;1.00;;
58581;SDS011;44361;51.476;5.700;2024-01-15T05:23:28;9.35;;;1.20;;
58581;SDS011;44361;51.476;5.700;2024-01-15T05:25:56;6.13;;;1.00;;
58581;SDS011;44361;51.476;5.700;2024-01-15T05:28:22;2.63;;;0.98;;
58581;SDS011;44361;51.476;5.700;2024-01-15T05:30:47;1.35;;;0.70;;
58581;SDS011;44361;51.476;5.700;2024-01-15T05:33:15;4.75;;;0.80;;
58581;SDS011;44361;51.476;5.700;2024-01-15T05:35:41;5.65;;;0.95;;
58581;SDS011;44361;51.476;5.700;2024-01-15T05:38:07;7.38;;;0.98;;
58581;SDS011;44361;51.476;5.700;2024-01-15T05:40:32;9.48;;;1.52;;
58581;SDS011;44361;51.476;5.700;2024-01-15T05:42:58;6.40;;;0.82;;
58581;SDS011;44361;51.476;5.700;2024-01-15T05:45:25;5.78;;;1.00;;
58581;SDS011;44361;51.476;5.700;2024-01-15T05:47:51;6.55;;;1.48;;
58581;SDS011;44361;51.476;5.700;2024-01-15T05:50:17;5.13;;;1.23;;
58581;SDS011;44361;51.476;5.700;2024-01-15T05:52:43;4.90;;;1.30;;
58581;SDS011;44361;51.476;5.700;2024-01-15T05:55:08;5.63;;;1.40;;
58581;SDS011;44361;51.476;5.700;2024-01-15T05:57:34;8.68;;;1.92;;
58581;SDS011;44361;51.476;5.700;2024-01-15T06:00:00;3.00;;;1.40;;
58581;SDS011;44361;51.476;5.700;2024-01-15T06:02:26;5.15;;;1.70;;
58581;SDS011;44361;51.476;5.700;2024-01-15T06:04:51;5.45;;;1.67;;
58581;SDS011;44361;51.476;5.700;2024-01-15T06:07:17;6.18;;;2.05;;
58581;SDS011;44361;51.476;5.700;2024-01-15T06:09:42;9.02;;;1.70;;
58581;SDS011;44361;51.476;5.700;2024-01-15T06:12:08;2.38;;;1.48;;
58581;SDS011;44361;51.476;5.700;2024-01-15T06:14:33;5.47;;;1.85;;
58581;SDS011;44361;51.476;5.700;2024-01-15T06:16:59;7.13;;;1.67;;
58581;SDS011;44361;51.476;5.700;2024-01-15T06:19:24;12.43;;;2.38;;
58581;SDS011;44361;51.476;5.700;2024-01-15T06:21:50;10.43;;;2.03;;
58581;SDS011;44361;51.476;5.700;2024-01-15T06:24:15;8.57;;;2.45;;
58581;SDS011;44361;51.476;5.700;2024-01-15T06:26:43;11.15;;;2.70;;
58581;SDS011;44361;51.476;5.700;2024-01-15T06:29:08;8.65;;;3.40;;
58581;SDS011;44361;51.476;5.700;2024-01-15T06:31:34;10.95;;;4.10;;
58581;SDS011;44361;51.476;5.700;2024-01-15T06:33:59;13.05;;;4.30;;
58581;SDS011;44361;51.476;5.700;2024-01-15T06:36:25;16.38;;;5.03;;
58581;SDS011;44361;51.476;5.700;2024-01-15T06:38:50;13.57;;;4.60;;
58581;SDS011;44361;51.476;5.700;2024-01-15T06:41:16;13.20;;;4.10;;
58581;SDS011;44361;51.476;5.700;2024-01-15T06:43:41;19.30;;;4.50;;
58581;SDS011;44361;51.476;5.700;2024-01-15T06:46:07;13.63;;;4.72;;
58581;SDS011;44361;51.476;5.700;2024-01-15T06:48:32;16.77;;;4.63;;
58581;SDS011;44361;51.476;5.700;2024-01-15T06:50:58;16.10;;;4.63;;
58581;SDS011;44361;51.476;5.700;2024-01-15T06:53:24;12.90;;;4.03;;
58581;SDS011;44361;51.476;5.700;2024-01-15T06:55:50;12.73;;;5.20;;
58581;SDS011;44361;51.476;5.700;2024-01-15T06:58:16;10.15;;;3.70;;
58581;SDS011;44361;51.476;5.700;2024-01-15T07:00:41;9.48;;;2.90;;
58581;SDS011;44361;51.476;5.700;2024-01-15T07:03:07;6.28;;;2.63;;
58581;SDS011;44361;51.476;5.700;2024-01-15T07:05:33;5.90;;;2.50;;
58581;SDS011;44361;51.476;5.700;2024-01-15T07:07:58;8.98;;;2.78;;
58581;SDS011;44361;51.476;5.700;2024-01-15T07:10:24;6.80;;;2.85;;
58581;SDS011;44361;51.476;5.700;2024-01-15T07:12:51;6.53;;;3.05;;
58581;SDS011;44361;51.476;5.700;2024-01-15T07:15:16;8.10;;;3.47;;
58581;SDS011;44361;51.476;5.700;2024-01-15T07:17:42;10.93;;;4.50;;
58581;SDS011;44361;51.476;5.700;2024-01-15T07:20:08;12.10;;;4.28;;
58581;SDS011;44361;51.476;5.700;2024-01-15T07:22:37;9.82;;;3.95;;
58581;SDS011;44361;51.476;5.700;2024-01-15T07:25:03;9.18;;;4.18;;
58581;SDS011;44361;51.476;5.700;2024-01-15T07:27:30;9.07;;;4.50;;
58581;SDS011;44361;51.476;5.700;2024-01-15T07:29:56;9.30;;;3.92;;
58581;SDS011;44361;51.476;5.700;2024-01-15T07:32:22;7.72;;;4.13;;
58581;SDS011;44361;51.476;5.700;2024-01-15T07:34:48;11.15;;;3.70;;
58581;SDS011;44361;51.476;5.700;2024-01-15T07:37:14;7.47;;;3.85;;
58581;SDS011;44361;51.476;5.700;2024-01-15T07:39:39;8.23;;;4.45;;
58581;SDS011;44361;51.476;5.700;2024-01-15T07:42:05;10.18;;;4.30;;
58581;SDS011;44361;51.476;5.700;2024-01-15T07:44:31;8.60;;;4.10;;
58581;SDS011;44361;51.476;5.700;2024-01-15T07:46:56;7.75;;;4.28;;
58581;SDS011;44361;51.476;5.700;2024-01-15T07:49:22;8.88;;;4.60;;
58581;SDS011;44361;51.476;5.700;2024-01-15T07:51:48;10.48;;;4.47;;
58581;SDS011;44361;51.476;5.700;2024-01-15T07:54:14;10.57;;;4.30;;
58581;SDS011;44361;51.476;5.700;2024-01-15T07:56:55;6.82;;;4.22;;
58581;SDS011;44361;51.476;5.700;2024-01-15T08:01:51;6.47;;;3.40;;
58581;SDS011;44361;51.476;5.700;2024-01-15T08:04:17;8.07;;;3.60;;
58581;SDS011;44361;51.476;5.700;2024-01-15T08:06:42;7.22;;;4.00;;
58581;SDS011;44361;51.476;5.700;2024-01-15T08:09:08;11.43;;;3.97;;
58581;SDS011;44361;51.476;5.700;2024-01-15T08:11:34;7.03;;;3.92;;
58581;SDS011;44361;51.476;5.700;2024-01-15T08:14:00;11.60;;;5.10;;
58581;SDS011;44361;51.476;5.700;2024-01-15T08:16:26;14.55;;;5.78;;
58581;SDS011;44361;51.476;5.700;2024-01-15T08:18:52;11.13;;;6.20;;
58581;SDS011;44361;51.476;5.700;2024-01-15T08:21:18;11.25;;;7.07;;
58581;SDS011;44361;51.476;5.700;2024-01-15T08:23:44;15.05;;;7.22;;
58581;SDS011;44361;51.476;5.700;2024-01-15T08:26:10;14.80;;;7.38;;
58581;SDS011;44361;51.476;5.700;2024-01-15T08:28:35;16.08;;;7.47;;
58581;SDS011;44361;51.476;5.700;2024-01-15T08:31:01;12.48;;;7.35;;
58581;SDS011;44361;51.476;5.700;2024-01-15T08:33:27;10.90;;;6.95;;
58581;SDS011;44361;51.476;5.700;2024-01-15T08:35:53;14.77;;;8.00;;
58581;SDS011;44361;51.476;5.700;2024-01-15T08:38:19;15.10;;;8.15;;
58581;SDS011;44361;51.476;5.700;2024-01-15T08:40:44;14.52;;;7.68;;
58581;SDS011;44361;51.476;5.700;2024-01-15T08:43:10;12.38;;;7.88;;
58581;SDS011;44361;51.476;5.700;2024-01-15T08:45:36;16.85;;;7.93;;
58581;SDS011;44361;51.476;5.700;2024-01-15T08:48:01;14.57;;;7.95;;
58581;SDS011;44361;51.476;5.700;2024-01-15T08:50:27;14.43;;;6.95;;
58581;SDS011;44361;51.476;5.700;2024-01-15T08:52:53;12.15;;;6.80;;
58581;SDS011;44361;51.476;5.700;2024-01-15T08:55:18;13.50;;;7.53;;
58581;SDS011;44361;51.476;5.700;2024-01-15T08:57:44;11.18;;;7.35;;
58581;SDS011;44361;51.476;5.700;2024-01-15T09:00:09;13.75;;;7.80;;
58581;SDS011;44361;51.476;5.700;2024-01-15T09:02:35;14.90;;;7.40;;
58581;SDS011;44361;51.476;5.700;2024-01-15T09:05:01;15.02;;;7.85;;
58581;SDS011;44361;51.476;5.700;2024-01-15T09:07:29;13.43;;;8.52;;
58581;SDS011;44361;51.476;5.700;2024-01-15T09:09:55;16.60;;;8.05;;
58581;SDS011;44361;51.476;5.700;2024-01-15T09:12:20;16.08;;;7.63;;
58581;SDS011;44361;51.476;5.700;2024-01-15T09:14:47;13.60;;;7.53;;
58581;SDS011;44361;51.476;5.700;2024-01-15T09:17:12;13.88;;;7.07;;
58581;SDS011;44361;51.476;5.700;2024-01-15T09:19:38;11.50;;;6.68;;
58581;SDS011;44361;51.476;5.700;2024-01-15T09:22:04;10.75;;;6.45;;
58581;SDS011;44361;51.476;5.700;2024-01-15T09:24:30;11.32;;;5.57;;
58581;SDS011;44361;51.476;5.700;2024-01-15T09:26:56;8.77;;;4.68;;
58581;SDS011;44361;51.476;5.700;2024-01-15T09:29:21;9.43;;;4.35;;
58581;SDS011;44361;51.476;5.700;2024-01-15T09:31:48;7.28;;;4.40;;
58581;SDS011;44361;51.476;5.700;2024-01-15T09:34:17;10.82;;;4.55;;
58581;SDS011;44361;51.476;5.700;2024-01-15T09:36:43;13.85;;;4.75;;
58581;SDS011;44361;51.476;5.700;2024-01-15T09:39:09;8.25;;;4.28;;
58581;SDS011;44361;51.476;5.700;2024-01-15T09:41:36;11.45;;;3.22;;
58581;SDS011;44361;51.476;5.700;2024-01-15T09:44:02;5.40;;;2.75;;
58581;SDS011;44361;51.476;5.700;2024-01-15T09:46:29;7.30;;;2.22;;
58581;SDS011;44361;51.476;5.700;2024-01-15T09:48:59;5.55;;;1.70;;
58581;SDS011;44361;51.476;5.700;2024-01-15T09:51:26;5.10;;;1.73;;
58581;SDS011;44361;51.476;5.700;2024-01-15T09:53:55;9.73;;;1.48;;
58581;SDS011;44361;51.476;5.700;2024-01-15T09:56:23;5.43;;;1.20;;
58581;SDS011;44361;51.476;5.700;2024-01-15T09:58:49;6.90;;;1.17;;
58581;SDS011;44361;51.476;5.700;2024-01-15T10:01:17;5.03;;;1.05;;
58581;SDS011;44361;51.476;5.700;2024-01-15T10:03:45;7.57;;;1.40;;
58581;SDS011;44361;51.476;5.700;2024-01-15T10:06:11;5.43;;;1.33;;
58581;SDS011;44361;51.476;5.700;2024-01-15T10:08:42;5.28;;;1.23;;
58581;SDS011;44361;51.476;5.700;2024-01-15T10:11:12;7.13;;;1.45;;
58581;SDS011;44361;51.476;5.700;2024-01-15T10:13:38;4.90;;;1.13;;
58581;SDS011;44361;51.476;5.700;2024-01-15T10:16:04;3.13;;;1.02;;
58581;SDS011;44361;51.476;5.700;2024-01-15T10:18:30;7.13;;;1.02;;
58581;SDS011;44361;51.476;5.700;2024-01-15T10:20:56;3.65;;;1.20;;
58581;SDS011;44361;51.476;5.700;2024-01-15T10:23:23;7.18;;;1.13;;
58581;SDS011;44361;51.476;5.700;2024-01-15T10:25:49;3.47;;;1.17;;
58581;SDS011;44361;51.476;5.700;2024-01-15T10:28:16;10.43;;;1.13;;
58581;SDS011;44361;51.476;5.700;2024-01-15T10:30:44;9.27;;;1.40;;
58581;SDS011;44361;51.476;5.700;2024-01-15T10:33:10;9.07;;;1.15;;
58581;SDS011;44361;51.476;5.700;2024-01-15T10:35:36;4.70;;;1.23;;
58581;SDS011;44361;51.476;5.700;2024-01-15T10:38:03;5.38;;;1.42;;
58581;SDS011;44361;51.476;5.700;2024-01-15T10:40:30;3.75;;;1.35;;
58581;SDS011;44361;51.476;5.700;2024-01-15T10:42:57;6.53;;;1.95;;
58581;SDS011;44361;51.476;5.700;2024-01-15T10:45:23;6.97;;;1.73;;
58581;SDS011;44361;51.476;5.700;2024-01-15T10:47:49;5.95;;;2.17;;
58581;SDS011;44361;51.476;5.700;2024-01-15T10:50:15;6.35;;;1.88;;
58581;SDS011;44361;51.476;5.700;2024-01-15T10:52:41;8.23;;;2.15;;
58581;SDS011;44361;51.476;5.700;2024-01-15T10:55:08;6.53;;;1.95;;
58581;SDS011;44361;51.476;5.700;2024-01-15T10:57:34;7.55;;;2.22;;
58581;SDS011;44361;51.476;5.700;2024-01-15T11:00:02;11.70;;;2.45;;
58581;SDS011;44361;51.476;5.700;2024-01-15T11:02:31;4.65;;;2.40;;
58581;SDS011;44361;51.476;5.700;2024-01-15T11:05:00;9.85;;;2.28;;
58581;SDS011;44361;51.476;5.700;2024-01-15T11:07:26;7.60;;;2.30;;
58581;SDS011;44361;51.476;5.700;2024-01-15T11:09:54;11.15;;;2.83;;
58581;SDS011;44361;51.476;5.700;2024-01-15T11:12:20;6.18;;;2.00;;
58581;SDS011;44361;51.476;5.700;2024-01-15T11:14:46;6.63;;;2.42;;
58581;SDS011;44361;51.476;5.700;2024-01-15T11:17:13;9.73;;;2.42;;
58581;SDS011;44361;51.476;5.700;2024-01-15T11:19:43;9.93;;;2.60;;
58581;SDS011;44361;51.476;5.700;2024-01-15T11:24:54;5.90;;;2.50;;
58581;SDS011;44361;51.476;5.700;2024-01-15T11:27:39;6.20;;;2.30;;
58581;SDS011;44361;51.476;5.700;2024-01-15T11:30:11;7.05;;;2.47;;
58581;SDS011;44361;51.476;5.700;2024-01-15T11:32:37;5.68;;;2.28;;
58581;SDS011;44361;51.476;5.700;2024-01-15T11:35:06;9.10;;;2.70;;
58581;SDS011;44361;51.476;5.700;2024-01-15T11:42:57;7.22;;;1.77;;
58581;SDS011;44361;51.476;5.700;2024-01-15T11:45:23;4.80;;;1.63;;
58581;SDS011;44361;51.476;5.700;2024-01-15T11:50:41;4.35;;;1.50;;
58581;SDS011;44361;51.476;5.700;2024-01-15T11:53:11;4.78;;;1.70;;
58581;SDS011;44361;51.476;5.700;2024-01-15T11:55:58;3.90;;;1.23;;
58581;SDS011;44361;51.476;5.700;2024-01-15T11:58:25;3.53;;;0.98;;
58581;SDS011;44361;51.476;5.700;2024-01-15T12:00:51;4.57;;;1.20;;
58581;SDS011;44361;51.476;5.700;2024-01-15T12:03:17;3.75;;;1.50;;
58581;SDS011;44361;51.476;5.700;2024-01-15T12:05:48;3.05;;;1.40;;
58581;SDS011;44361;51.476;5.700;2024-01-15T12:08:14;3.35;;;0.77;;
58581;SDS011;44361;51.476;5.700;2024-01-15T12:10:45;1.63;;;1.13;;
58581;SDS011;44361;51.476;5.700;2024-01-15T12:13:11;4.05;;;0.93;;
58581;SDS011;44361;51.476;5.700;2024-01-15T12:15:38;2.20;;;1.25;;
58581;SDS011;44361;51.476;5.700;2024-01-15T12:18:07;6.15;;;0.93;;
58581;SDS011;44361;51.476;5.700;2024-01-15T12:20:34;1.38;;;0.90;;
58581;SDS011;44361;51.476;5.700;2024-01-15T12:23:01;2.70;;;1.30;;
58581;SDS011;44361;51.476;5.700;2024-01-15T12:25:28;1.23;;;0.73;;
58581;SDS011;44361;51.476;5.700;2024-01-15T12:27:54;3.78;;;1.05;;
58581;SDS011;44361;51.476;5.700;2024-01-15T12:30:20;1.63;;;1.08;;
58581;SDS011;44361;51.476;5.700;2024-01-15T12:32:46;2.13;;;1.00;;
58581;SDS011;44361;51.476;5.700;2024-01-15T12:35:12;2.63;;;1.13;;
58581;SDS011;44361;51.476;5.700;2024-01-15T12:37:39;1.17;;;1.08;;
58581;SDS011;44361;51.476;5.700;2024-01-15T12:40:09;1.20;;;0.90;;
58581;SDS011;44361;51.476;5.700;2024-01-15T12:42:35;4.65;;;1.98;;
58581;SDS011;44361;51.476;5.700;2024-01-15T12:45:02;3.05;;;1.30;;
58581;SDS011;44361;51.476;5.700;2024-01-15T12:47:29;2.28;;;1.67;;
58581;SDS011;44361;51.476;5.700;2024-01-15T12:49:56;4.70;;;2.38;;
58581;SDS011;44361;51.476;5.700;2024-01-15T12:52:26;1.92;;;1.70;;
58581;SDS011;44361;51.476;5.700;2024-01-15T12:54:52;3.92;;;1.90;;
58581;SDS011;44361;51.476;5.700;2024-01-15T12:57:18;2.00;;;1.60;;
58581;SDS011;44361;51.476;5.700;2024-01-15T12:59:44;6.63;;;2.47;;
58581;SDS011;44361;51.476;5.700;2024-01-15T13:02:13;3.80;;;2.45;;
58581;SDS011;44361;51.476;5.700;2024-01-15T13:04:39;3.75;;;2.85;;
58581;SDS011;44361;51.476;5.700;2024-01-15T13:07:05;6.60;;;3.03;;
58581;SDS011;44361;51.476;5.700;2024-01-15T13:09:32;4.93;;;2.72;;
58581;SDS011;44361;51.476;5.700;2024-01-15T13:11:58;3.83;;;2.70;;
58581;SDS011;44361;51.476;5.700;2024-01-15T13:14:24;5.78;;;2.90;;
58581;SDS011;44361;51.476;5.700;2024-01-15T13:16:50;4.90;;;3.00;;
58581;SDS011;44361;51.476;5.700;2024-01-15T13:19:16;4.47;;;3.15;;
58581;SDS011;44361;51.476;5.700;2024-01-15T13:21:42;8.02;;;2.75;;
58581;SDS011;44361;51.476;5.700;2024-01-15T13:24:07;10.27;;;3.38;;
58581;SDS011;44361;51.476;5.700;2024-01-15T13:26:34;4.40;;;2.53;;
58581;SDS011;44361;51.476;5.700;2024-01-15T13:29:00;4.28;;;2.75;;
58581;SDS011;44361;51.476;5.700;2024-01-15T13:31:27;4.97;;;3.17;;
58581;SDS011;44361;51.476;5.700;2024-01-15T13:33:53;5.07;;;3.20;;
58581;SDS011;44361;51.476;5.700;2024-01-15T13:36:20;4.97;;;2.78;;
58581;SDS011;44361;51.476;5.700;2024-01-15T13:38:46;5.32;;;2.88;;
58581;SDS011;44361;51.476;5.700;2024-01-15T13:41:12;4.50;;;2.60;;
58581;SDS011;44361;51.476;5.700;2024-01-15T13:43:37;3.25;;;2.33;;
58581;SDS011;44361;51.476;5.700;2024-01-15T13:46:03;3.92;;;2.60;;
58581;SDS011;44361;51.476;5.700;2024-01-15T13:48:30;6.82;;;2.72;;
58581;SDS011;44361;51.476;5.700;2024-01-15T13:50:56;4.50;;;2.97;;
58581;SDS011;44361;51.476;5.700;2024-01-15T13:53:22;4.70;;;2.90;;
58581;SDS011;44361;51.476;5.700;2024-01-15T13:55:48;5.22;;;3.50;;
58581;SDS011;44361;51.476;5.700;2024-01-15T13:58:13;3.40;;;2.88;;
58581;SDS011;44361;51.476;5.700;2024-01-15T14:00:39;3.95;;;2.72;;
58581;SDS011;44361;51.476;5.700;2024-01-15T14:03:05;4.20;;;2.78;;
58581;SDS011;44361;51.476;5.700;2024-01-15T14:05:31;4.80;;;2.70;;
58581;SDS011;44361;51.476;5.700;2024-01-15T14:07:56;4.55;;;2.70;;
58581;SDS011;44361;51.476;5.700;2024-01-15T14:10:22;5.85;;;3.30;;
58581;SDS011;44361;51.476;5.700;2024-01-15T14:12:47;4.30;;;2.70;;
58581;SDS011;44361;51.476;5.700;2024-01-15T14:15:13;6.38;;;2.60;;
58581;SDS011;44361;51.476;5.700;2024-01-15T14:17:39;7.72;;;3.38;;
58581;SDS011;44361;51.476;5.700;2024-01-15T14:20:05;4.63;;;2.75;;
58581;SDS011;44361;51.476;5.700;2024-01-15T14:22:31;6.43;;;2.58;;
58581;SDS011;44361;51.476;5.700;2024-01-15T14:24:56;5.85;;;2.97;;
58581;SDS011;44361;51.476;5.700;2024-01-15T14:27:22;7.45;;;3.88;;
58581;SDS011;44361;51.476;5.700;2024-01-15T14:29:47;6.75;;;3.83;;
58581;SDS011;44361;51.476;5.700;2024-01-15T14:32:13;8.27;;;3.95;;
58581;SDS011;44361;51.476;5.700;2024-01-15T14:34:39;8.80;;;4.07;;
58581;SDS011;44361;51.476;5.700;2024-01-15T14:37:04;6.70;;;4.07;;
58581;SDS011;44361;51.476;5.700;2024-01-15T14:39:31;8.18;;;3.88;;
58581;SDS011;44361;51.476;5.700;2024-01-15T14:41:59;8.05;;;4.15;;
58581;SDS011;44361;51.476;5.700;2024-01-15T14:44:25;9.55;;;4.53;;
58581;SDS011;44361;51.476;5.700;2024-01-15T14:46:51;7.25;;;4.10;;